sensor_id;sensor_type;location;lat;lon;timestamp;temperature;humidity
55008;DHT22;40902;45.116;21.296;2023-04-16T00:02:17;358.80;2329.60
55008;DHT22;40902;45.116;21.296;2023-04-16T00:04:43;358.90;2329.60
55008;DHT22;40902;45.116;21.296;2023-04-16T00:07:09;358.80;2329.60
55008;DHT22;40902;45.116;21.296;2023-04-16T00:09:34;358.90;2329.60
55008;DHT22;40902;45.116;21.296;2023-04-16T00:12:00;358.80;2329.60
55008;DHT22;40902;45.116;21.296;2023-04-16T00:14:26;358.90;2329.60
55008;DHT22;40902;45.116;21.296;2023-04-16T00:16:51;358.90;2329.60
55008;DHT22;40902;45.116;21.296;2023-04-16T00:19:17;358.90;2329.60
55008;DHT22;40902;45.116;21.296;2023-04-16T00:21:43;358.90;2329.60
55008;DHT22;40902;45.116;21.296;2023-04-16T00:24:09;358.90;2329.60
55008;DHT22;40902;45.116;21.296;2023-04-16T00:26:35;358.90;2329.60
55008;DHT22;40902;45.116;21.296;2023-04-16T00:29:00;358.90;2329.60
55008;DHT22;40902;45.116;21.296;2023-04-16T00:31:28;358.90;2329.60
55008;DHT22;40902;45.116;21.296;2023-04-16T00:33:54;358.90;2329.60
55008;DHT22;40902;45.116;21.296;2023-04-16T00:36:21;358.90;2329.60
55008;DHT22;40902;45.116;21.296;2023-04-16T00:38:47;358.90;2329.60
55008;DHT22;40902;45.116;21.296;2023-04-16T00:41:13;358.90;2329.60
55008;DHT22;40902;45.116;21.296;2023-04-16T00:43:38;358.90;2329.60
55008;DHT22;40902;45.116;21.296;2023-04-16T00:46:05;358.90;2329.60
55008;DHT22;40902;45.116;21.296;2023-04-16T00:48:34;358.90;2329.60
55008;DHT22;40902;45.116;21.296;2023-04-16T00:51:03;358.90;2329.60
55008;DHT22;40902;45.116;21.296;2023-04-16T00:53:29;358.90;2329.60
55008;DHT22;40902;45.116;21.296;2023-04-16T00:55:55;358.80;2329.60
55008;DHT22;40902;45.116;21.296;2023-04-16T00:58:22;358.80;2329.60
55008;DHT22;40902;45.116;21.296;2023-04-16T01:00:49;358.80;2329.60
55008;DHT22;40902;45.116;21.296;2023-04-16T01:03:15;358.80;2329.60
55008;DHT22;40902;45.116;21.296;2023-04-16T01:05:42;358.80;2329.60
55008;DHT22;40902;45.116;21.296;2023-04-16T01:08:19;358.80;2329.60
55008;DHT22;40902;45.116;21.296;2023-04-16T01:10:45;358.80;2329.60
55008;DHT22;40902;45.116;21.296;2023-04-16T01:13:11;358.80;2329.60
55008;DHT22;40902;45.116;21.296;2023-04-16T01:15:37;358.80;2329.60
55008;DHT22;40902;45.116;21.296;2023-04-16T01:18:13;358.80;2329.60
55008;DHT22;40902;45.116;21.296;2023-04-16T01:20:39;358.80;2329.60
55008;DHT22;40902;45.116;21.296;2023-04-16T01:23:05;358.80;2329.60
55008;DHT22;40902;45.116;21.296;2023-04-16T01:25:30;358.80;2329.60
55008;DHT22;40902;45.116;21.296;2023-04-16T01:27:56;358.80;2329.60
55008;DHT22;40902;45.116;21.296;2023-04-16T01:30:24;358.70;2329.60
55008;DHT22;40902;45.116;21.296;2023-04-16T01:32:49;358.70;2329.60
55008;DHT22;40902;45.116;21.296;2023-04-16T01:35:15;358.70;2329.60
55008;DHT22;40902;45.116;21.296;2023-04-16T01:37:43;358.70;2329.60
55008;DHT22;40902;45.116;21.296;2023-04-16T01:40:08;358.60;2329.60
55008;DHT22;40902;45.116;21.296;2023-04-16T01:42:34;358.70;2329.60
55008;DHT22;40902;45.116;21.296;2023-04-16T01:45:00;358.60;2329.60
55008;DHT22;40902;45.116;21.296;2023-04-16T01:47:26;358.60;2329.60
55008;DHT22;40902;45.116;21.296;2023-04-16T01:49:52;358.60;2329.60
55008;DHT22;40902;45.116;21.296;2023-04-16T01:52:18;358.70;2329.60
55008;DHT22;40902;45.116;21.296;2023-04-16T01:54:43;358.70;2329.60
55008;DHT22;40902;45.116;21.296;2023-04-16T01:57:09;358.70;2329.60
55008;DHT22;40902;45.116;21.296;2023-04-16T01:59:35;358.80;2329.60
55008;DHT22;40902;45.116;21.296;2023-04-16T02:02:11;358.80;2329.60
55008;DHT22;40902;45.116;21.296;2023-04-16T02:04:42;358.80;2329.60
55008;DHT22;40902;45.116;21.296;2023-04-16T02:07:09;358.80;2329.60
55008;DHT22;40902;45.116;21.296;2023-04-16T02:09:37;358.90;2329.60
55008;DHT22;40902;45.116;21.296;2023-04-16T02:12:03;358.90;2329.60
55008;DHT22;40902;45.116;21.296;2023-04-16T02:14:29;358.90;2329.60
55008;DHT22;40902;45.116;21.296;2023-04-16T02:16:55;359.00;2329.60
55008;DHT22;40902;45.116;21.296;2023-04-16T02:19:21;359.00;2329.60
55008;DHT22;40902;45.116;21.296;2023-04-16T02:21:47;359.00;2329.60
55008;DHT22;40902;45.116;21.296;2023-04-16T02:24:12;359.00;2329.60
55008;DHT22;40902;45.116;21.296;2023-04-16T02:26:38;359.00;2329.60
55008;DHT22;40902;45.116;21.296;2023-04-16T02:29:04;358.90;2329.60
55008;DHT22;40902;45.116;21.296;2023-04-16T02:31:30;358.90;2329.60
55008;DHT22;40902;45.116;21.296;2023-04-16T02:33:56;358.80;2329.60
55008;DHT22;40902;45.116;21.296;2023-04-16T02:36:22;358.80;2329.60
55008;DHT22;40902;45.116;21.296;2023-04-16T02:38:47;358.80;2329.60
55008;DHT22;40902;45.116;21.296;2023-04-16T02:41:13;358.80;2329.60
55008;DHT22;40902;45.116;21.296;2023-04-16T02:43:39;358.70;2329.60
55008;DHT22;40902;45.116;21.296;2023-04-16T02:46:05;358.70;2329.60
55008;DHT22;40902;45.116;21.296;2023-04-16T02:48:31;358.70;2329.60
55008;DHT22;40902;45.116;21.296;2023-04-16T02:50:57;358.70;2329.60
55008;DHT22;40902;45.116;21.296;2023-04-16T02:53:22;358.70;2329.60
55008;DHT22;40902;45.116;21.296;2023-04-16T02:55:52;358.70;2329.60
55008;DHT22;40902;45.116;21.296;2023-04-16T02:58:22;358.70;2329.60
55008;DHT22;40902;45.116;21.296;2023-04-16T03:00:49;358.70;2329.60
55008;DHT22;40902;45.116;21.296;2023-04-16T03:03:15;358.70;2329.60
55008;DHT22;40902;45.116;21.296;2023-04-16T03:05:40;358.70;2329.60
55008;DHT22;40902;45.116;21.296;2023-04-16T03:08:06;358.70;2329.60
55008;DHT22;40902;45.116;21.296;2023-04-16T03:10:32;358.70;2329.60
55008;DHT22;40902;45.116;21.296;2023-04-16T03:12:59;358.70;2329.60
55008;DHT22;40902;45.116;21.296;2023-04-16T03:15:25;358.70;2329.60
55008;DHT22;40902;45.116;21.296;2023-04-16T03:17:52;358.70;2329.60
55008;DHT22;40902;45.116;21.296;2023-04-16T03:20:17;358.80;2329.60
55008;DHT22;40902;45.116;21.296;2023-04-16T03:22:45;358.70;2329.60
55008;DHT22;40902;45.116;21.296;2023-04-16T03:25:11;358.70;2329.60
55008;DHT22;40902;45.116;21.296;2023-04-16T03:27:36;358.70;2329.60
55008;DHT22;40902;45.116;21.296;2023-04-16T03:30:14;358.60;2329.60
55008;DHT22;40902;45.116;21.296;2023-04-16T03:32:40;358.60;2329.60
55008;DHT22;40902;45.116;21.296;2023-04-16T03:35:08;358.60;2329.60
55008;DHT22;40902;45.116;21.296;2023-04-16T03:37:34;358.60;2329.60
55008;DHT22;40902;45.116;21.296;2023-04-16T03:40:00;358.60;2329.60
55008;DHT22;40902;45.116;21.296;2023-04-16T03:42:26;358.60;2329.60
55008;DHT22;40902;45.116;21.296;2023-04-16T03:44:51;358.60;2329.60
55008;DHT22;40902;45.116;21.296;2023-04-16T03:47:19;358.60;2329.60
55008;DHT22;40902;45.116;21.296;2023-04-16T03:49:45;358.60;2329.60
55008;DHT22;40902;45.116;21.296;2023-04-16T03:52:10;358.60;2329.60
55008;DHT22;40902;45.116;21.296;2023-04-16T03:54:36;358.50;2329.60
55008;DHT22;40902;45.116;21.296;2023-04-16T03:57:02;358.50;2329.60
55008;DHT22;40902;45.116;21.296;2023-04-16T03:59:28;358.50;2329.60
55008;DHT22;40902;45.116;21.296;2023-04-16T04:01:53;358.60;2329.60
55008;DHT22;40902;45.116;21.296;2023-04-16T04:04:20;358.60;2329.60
55008;DHT22;40902;45.116;21.296;2023-04-16T04:06:46;358.60;2329.60
55008;DHT22;40902;45.116;21.296;2023-04-16T04:09:12;358.60;2329.60
55008;DHT22;40902;45.116;21.296;2023-04-16T04:11:38;358.70;2329.60
55008;DHT22;40902;45.116;21.296;2023-04-16T04:14:04;358.60;2329.60
55008;DHT22;40902;45.116;21.296;2023-04-16T04:16:30;358.60;2329.60
55008;DHT22;40902;45.116;21.296;2023-04-16T04:18:56;358.60;2329.60
55008;DHT22;40902;45.116;21.296;2023-04-16T04:21:22;358.70;2329.60
55008;DHT22;40902;45.116;21.296;2023-04-16T04:23:48;358.70;2329.60
55008;DHT22;40902;45.116;21.296;2023-04-16T04:26:13;358.70;2329.60
55008;DHT22;40902;45.116;21.296;2023-04-16T04:28:39;358.70;2329.60
55008;DHT22;40902;45.116;21.296;2023-04-16T04:31:05;358.80;2329.60
55008;DHT22;40902;45.116;21.296;2023-04-16T04:33:31;358.90;2329.60
55008;DHT22;40902;45.116;21.296;2023-04-16T04:35:56;358.90;2329.60
55008;DHT22;40902;45.116;21.296;2023-04-16T04:38:22;359.00;2329.60
55008;DHT22;40902;45.116;21.296;2023-04-16T04:40:52;359.00;2329.60
55008;DHT22;40902;45.116;21.296;2023-04-16T04:43:21;359.10;2329.60
55008;DHT22;40902;45.116;21.296;2023-04-16T04:45:47;359.10;2329.60
55008;DHT22;40902;45.116;21.296;2023-04-16T04:48:13;359.10;2329.60
55008;DHT22;40902;45.116;21.296;2023-04-16T04:50:40;359.10;2329.60
55008;DHT22;40902;45.116;21.296;2023-04-16T04:53:06;359.20;2329.60
55008;DHT22;40902;45.116;21.296;2023-04-16T04:55:38;359.20;2329.60
55008;DHT22;40902;45.116;21.296;2023-04-16T04:58:05;359.20;2329.60
55008;DHT22;40902;45.116;21.296;2023-04-16T05:20:06;384.30;2329.60
55008;DHT22;40902;45.116;21.296;2023-04-16T05:22:32;384.10;2329.60
55008;DHT22;40902;45.116;21.296;2023-04-16T05:27:24;384.50;2329.60
55008;DHT22;40902;45.116;21.296;2023-04-16T05:29:49;384.20;2329.60
55008;DHT22;40902;45.116;21.296;2023-04-16T05:32:15;384.20;2329.60
55008;DHT22;40902;45.116;21.296;2023-04-16T05:34:41;384.20;2329.60
55008;DHT22;40902;45.116;21.296;2023-04-16T05:37:06;384.40;2329.60
55008;DHT22;40902;45.116;21.296;2023-04-16T05:39:32;384.40;2329.60
55008;DHT22;40902;45.116;21.296;2023-04-16T05:41:58;384.50;2329.60
55008;DHT22;40902;45.116;21.296;2023-04-16T05:44:24;384.50;2329.60
55008;DHT22;40902;45.116;21.296;2023-04-16T05:46:49;384.50;2329.60
55008;DHT22;40902;45.116;21.296;2023-04-16T05:49:16;384.50;2329.60
55008;DHT22;40902;45.116;21.296;2023-04-16T05:51:43;384.50;2329.60
55008;DHT22;40902;45.116;21.296;2023-04-16T05:54:09;384.50;2329.60
55008;DHT22;40902;45.116;21.296;2023-04-16T05:56:34;384.50;2329.60
55008;DHT22;40902;45.116;21.296;2023-04-16T05:59:00;384.50;2329.60
55008;DHT22;40902;45.116;21.296;2023-04-16T06:01:26;384.60;2329.60
55008;DHT22;40902;45.116;21.296;2023-04-16T06:03:51;409.80;2355.20
55008;DHT22;40902;45.116;21.296;2023-04-16T06:06:17;384.90;2329.60
55008;DHT22;40902;45.116;21.296;2023-04-16T06:08:43;384.80;2329.60
55008;DHT22;40902;45.116;21.296;2023-04-16T06:11:09;384.80;2329.60
55008;DHT22;40902;45.116;21.296;2023-04-16T06:13:35;384.80;2329.60
55008;DHT22;40902;45.116;21.296;2023-04-16T06:16:01;384.80;2329.60
55008;DHT22;40902;45.116;21.296;2023-04-16T06:18:26;384.90;2329.60
55008;DHT22;40902;45.116;21.296;2023-04-16T06:20:52;409.80;2355.20
55008;DHT22;40902;45.116;21.296;2023-04-16T06:23:18;409.80;2355.20
55008;DHT22;40902;45.116;21.296;2023-04-16T06:25:43;409.70;2355.20
55008;DHT22;40902;45.116;21.296;2023-04-16T06:28:09;409.70;2355.20
55008;DHT22;40902;45.116;21.296;2023-04-16T06:30:35;409.70;2355.20
55008;DHT22;40902;45.116;21.296;2023-04-16T06:33:00;409.70;2355.20
55008;DHT22;40902;45.116;21.296;2023-04-16T06:35:26;409.70;2355.20
55008;DHT22;40902;45.116;21.296;2023-04-16T06:37:52;409.70;2355.20
55008;DHT22;40902;45.116;21.296;2023-04-16T06:40:17;409.70;2355.20
55008;DHT22;40902;45.116;21.296;2023-04-16T06:42:43;409.70;2355.20
55008;DHT22;40902;45.116;21.296;2023-04-16T06:45:10;409.70;2355.20
55008;DHT22;40902;45.116;21.296;2023-04-16T06:47:35;409.70;2355.20
55008;DHT22;40902;45.116;21.296;2023-04-16T06:50:01;409.80;2355.20
55008;DHT22;40902;45.116;21.296;2023-04-16T06:52:28;409.90;2355.20
55008;DHT22;40902;45.116;21.296;2023-04-16T06:54:53;410.00;2355.20
55008;DHT22;40902;45.116;21.296;2023-04-16T06:59:45;410.50;2355.20
55008;DHT22;40902;45.116;21.296;2023-04-16T07:02:11;410.20;2355.20
55008;DHT22;40902;45.116;21.296;2023-04-16T07:04:37;410.20;2355.20
55008;DHT22;40902;45.116;21.296;2023-04-16T07:07:02;410.10;2355.20
55008;DHT22;40902;45.116;21.296;2023-04-16T07:09:28;410.10;2355.20
55008;DHT22;40902;45.116;21.296;2023-04-16T07:11:54;410.20;2355.20
55008;DHT22;40902;45.116;21.296;2023-04-16T07:14:20;410.10;2355.20
55008;DHT22;40902;45.116;21.296;2023-04-16T07:16:45;410.20;2355.20
55008;DHT22;40902;45.116;21.296;2023-04-16T07:19:11;410.30;2355.20
55008;DHT22;40902;45.116;21.296;2023-04-16T07:21:37;410.30;2355.20
55008;DHT22;40902;45.116;21.296;2023-04-16T07:24:03;410.30;2355.20
55008;DHT22;40902;45.116;21.296;2023-04-16T07:26:28;410.40;2355.20
55008;DHT22;40902;45.116;21.296;2023-04-16T07:28:54;410.40;2355.20
55008;DHT22;40902;45.116;21.296;2023-04-16T07:31:20;410.40;2355.20
55008;DHT22;40902;45.116;21.296;2023-04-16T07:33:46;410.50;2355.20
55008;DHT22;40902;45.116;21.296;2023-04-16T07:36:11;410.50;2355.20
55008;DHT22;40902;45.116;21.296;2023-04-16T07:50:47;435.80;2355.20
55008;DHT22;40902;45.116;21.296;2023-04-16T08:03:00;436.00;2355.20
55008;DHT22;40902;45.116;21.296;2023-04-16T08:05:26;435.80;2355.20
55008;DHT22;40902;45.116;21.296;2023-04-16T08:07:51;435.70;2355.20
55008;DHT22;40902;45.116;21.296;2023-04-16T08:10:17;435.70;2355.20
55008;DHT22;40902;45.116;21.296;2023-04-16T08:12:43;435.90;2355.20
55008;DHT22;40902;45.116;21.296;2023-04-16T08:15:09;435.80;2355.20
55008;DHT22;40902;45.116;21.296;2023-04-16T08:17:34;460.80;2380.80
55008;DHT22;40902;45.116;21.296;2023-04-16T08:20:02;435.90;2355.20
55008;DHT22;40902;45.116;21.296;2023-04-16T08:22:27;435.90;2355.20
55008;DHT22;40902;45.116;21.296;2023-04-16T08:24:53;436.10;2355.20
55008;DHT22;40902;45.116;21.296;2023-04-16T08:27:19;460.90;2380.80
55008;DHT22;40902;45.116;21.296;2023-04-16T08:29:44;461.30;2380.80
55008;DHT22;40902;45.116;21.296;2023-04-16T08:32:10;461.60;2380.80
55008;DHT22;40902;45.116;21.296;2023-04-16T08:34:36;461.60;2355.20
55008;DHT22;40902;45.116;21.296;2023-04-16T08:37:02;461.40;2304.00
55008;DHT22;40902;45.116;21.296;2023-04-16T09:06:56;461.70;2099.20
55008;DHT22;40902;45.116;21.296;2023-04-16T09:09:22;461.30;2124.80
55008;DHT22;40902;45.116;21.296;2023-04-16T09:11:51;461.20;2150.40
55008;DHT22;40902;45.116;21.296;2023-04-16T09:14:18;461.40;2150.40
55008;DHT22;40902;45.116;21.296;2023-04-16T09:16:45;461.40;2176.00
55008;DHT22;40902;45.116;21.296;2023-04-16T09:19:13;461.40;2150.40
55008;DHT22;40902;45.116;21.296;2023-04-16T09:21:40;461.30;2099.20
55008;DHT22;40902;45.116;21.296;2023-04-16T09:24:07;461.20;2176.00
55008;DHT22;40902;45.116;21.296;2023-04-16T09:26:34;461.30;2201.60
55008;DHT22;40902;45.116;21.296;2023-04-16T09:29:00;461.20;2201.60
55008;DHT22;40902;45.116;21.296;2023-04-16T09:31:26;461.20;2150.40
55008;DHT22;40902;45.116;21.296;2023-04-16T09:36:27;461.00;2201.60
55008;DHT22;40902;45.116;21.296;2023-04-16T09:38:53;461.00;2201.60
55008;DHT22;40902;45.116;21.296;2023-04-16T09:41:27;461.00;2201.60
55008;DHT22;40902;45.116;21.296;2023-04-16T09:43:56;461.10;2227.20
55008;DHT22;40902;45.116;21.296;2023-04-16T09:46:24;461.00;2227.20
55008;DHT22;40902;45.116;21.296;2023-04-16T09:48:49;461.00;2252.80
55008;DHT22;40902;45.116;21.296;2023-04-16T09:51:15;460.90;2252.80
55008;DHT22;40902;45.116;21.296;2023-04-16T09:53:41;460.90;2278.40
55008;DHT22;40902;45.116;21.296;2023-04-16T09:56:08;460.90;2252.80
55008;DHT22;40902;45.116;21.296;2023-04-16T09:58:37;460.90;2278.40
55008;DHT22;40902;45.116;21.296;2023-04-16T10:03:32;461.00;2329.60
55008;DHT22;40902;45.116;21.296;2023-04-16T10:06:00;461.00;2329.60
55008;DHT22;40902;45.116;21.296;2023-04-16T10:08:27;461.10;2355.20
55008;DHT22;40902;45.116;21.296;2023-04-16T10:10:53;461.50;2380.80
55008;DHT22;40902;45.116;21.296;2023-04-16T10:13:20;461.30;2355.20
55008;DHT22;40902;45.116;21.296;2023-04-16T10:15:46;461.30;2380.80
55008;DHT22;40902;45.116;21.296;2023-04-16T10:18:13;461.30;2380.80
55008;DHT22;40902;45.116;21.296;2023-04-16T10:20:39;461.30;2278.40
55008;DHT22;40902;45.116;21.296;2023-04-16T10:23:05;461.20;2304.00
55008;DHT22;40902;45.116;21.296;2023-04-16T10:25:31;461.20;2252.80
55008;DHT22;40902;45.116;21.296;2023-04-16T10:27:57;461.30;2278.40
55008;DHT22;40902;45.116;21.296;2023-04-16T10:30:25;461.40;2252.80
55008;DHT22;40902;45.116;21.296;2023-04-16T10:32:51;461.50;2278.40
55008;DHT22;40902;45.116;21.296;2023-04-16T10:35:20;461.50;2252.80
55008;DHT22;40902;45.116;21.296;2023-04-16T10:37:46;461.50;2201.60
55008;DHT22;40902;45.116;21.296;2023-04-16T10:40:23;461.60;2201.60
55008;DHT22;40902;45.116;21.296;2023-04-16T10:42:59;461.70;2227.20
55008;DHT22;40902;45.116;21.296;2023-04-16T10:45:30;461.70;2227.20
55008;DHT22;40902;45.116;21.296;2023-04-16T10:47:57;486.40;2201.60
55008;DHT22;40902;45.116;21.296;2023-04-16T10:50:23;486.70;2150.40
55008;DHT22;40902;45.116;21.296;2023-04-16T10:53:25;486.60;2176.00
55008;DHT22;40902;45.116;21.296;2023-04-16T10:58:30;486.80;2099.20
55008;DHT22;40902;45.116;21.296;2023-04-16T11:01:00;487.30;2150.40
55008;DHT22;40902;45.116;21.296;2023-04-16T11:03:30;512.00;2176.00
55008;DHT22;40902;45.116;21.296;2023-04-16T11:08:45;512.10;2099.20
55008;DHT22;40902;45.116;21.296;2023-04-16T11:11:11;487.20;2124.80
55008;DHT22;40902;45.116;21.296;2023-04-16T11:16:04;512.70;2099.20
55008;DHT22;40902;45.116;21.296;2023-04-16T11:18:30;512.40;2176.00
55008;DHT22;40902;45.116;21.296;2023-04-16T11:20:56;512.60;2048.00
55008;DHT22;40902;45.116;21.296;2023-04-16T11:23:22;512.20;2022.40
55008;DHT22;40902;45.116;21.296;2023-04-16T11:25:48;512.00;2022.40
55008;DHT22;40902;45.116;21.296;2023-04-16T11:28:17;512.00;2099.20
55008;DHT22;40902;45.116;21.296;2023-04-16T11:30:42;512.40;2048.00
55008;DHT22;40902;45.116;21.296;2023-04-16T11:33:09;512.20;2048.00
55008;DHT22;40902;45.116;21.296;2023-04-16T11:35:39;512.50;2022.40
55008;DHT22;40902;45.116;21.296;2023-04-16T11:38:05;512.20;2048.00
55008;DHT22;40902;45.116;21.296;2023-04-16T11:40:32;512.10;2022.40
55008;DHT22;40902;45.116;21.296;2023-04-16T11:43:13;512.10;2048.00
55008;DHT22;40902;45.116;21.296;2023-04-16T11:50:32;512.40;1920.00
55008;DHT22;40902;45.116;21.296;2023-04-16T11:53:03;512.20;1996.80
55008;DHT22;40902;45.116;21.296;2023-04-16T11:55:29;512.20;2048.00
55008;DHT22;40902;45.116;21.296;2023-04-16T12:37:30;512.40;1945.60
55008;DHT22;40902;45.116;21.296;2023-04-16T12:39:56;512.00;1945.60
55008;DHT22;40902;45.116;21.296;2023-04-16T12:42:21;487.30;1920.00
55008;DHT22;40902;45.116;21.296;2023-04-16T12:44:47;487.30;1945.60
55008;DHT22;40902;45.116;21.296;2023-04-16T12:47:13;487.20;2124.80
55008;DHT22;40902;45.116;21.296;2023-04-16T12:49:39;487.10;2150.40
55008;DHT22;40902;45.116;21.296;2023-04-16T12:52:05;487.00;2124.80
55008;DHT22;40902;45.116;21.296;2023-04-16T12:54:31;486.90;2176.00
55008;DHT22;40902;45.116;21.296;2023-04-16T12:56:57;487.10;2176.00
55008;DHT22;40902;45.116;21.296;2023-04-16T12:59:23;486.90;2176.00
55008;DHT22;40902;45.116;21.296;2023-04-16T13:01:48;486.80;2150.40
55008;DHT22;40902;45.116;21.296;2023-04-16T13:04:15;486.80;2099.20
55008;DHT22;40902;45.116;21.296;2023-04-16T13:06:42;486.80;2073.60
55008;DHT22;40902;45.116;21.296;2023-04-16T13:09:07;486.90;2099.20
55008;DHT22;40902;45.116;21.296;2023-04-16T13:11:33;487.00;2099.20
55008;DHT22;40902;45.116;21.296;2023-04-16T13:13:59;487.00;2048.00
55008;DHT22;40902;45.116;21.296;2023-04-16T13:16:24;487.10;2124.80
55008;DHT22;40902;45.116;21.296;2023-04-16T13:18:50;487.10;2099.20
55008;DHT22;40902;45.116;21.296;2023-04-16T13:21:16;487.20;2048.00
55008;DHT22;40902;45.116;21.296;2023-04-16T13:23:41;487.30;2073.60
55008;DHT22;40902;45.116;21.296;2023-04-16T13:26:07;512.30;2022.40
55008;DHT22;40902;45.116;21.296;2023-04-16T13:28:33;512.20;2022.40
55008;DHT22;40902;45.116;21.296;2023-04-16T13:30:59;512.10;1996.80
55008;DHT22;40902;45.116;21.296;2023-04-16T13:55:21;512.30;1971.20
55008;DHT22;40902;45.116;21.296;2023-04-16T13:57:47;512.10;1971.20
55008;DHT22;40902;45.116;21.296;2023-04-16T14:00:14;487.20;1971.20
55008;DHT22;40902;45.116;21.296;2023-04-16T14:02:41;487.10;1996.80
55008;DHT22;40902;45.116;21.296;2023-04-16T14:05:07;487.00;1996.80
55008;DHT22;40902;45.116;21.296;2023-04-16T14:07:34;487.10;2022.40
55008;DHT22;40902;45.116;21.296;2023-04-16T14:09:59;487.10;2022.40
55008;DHT22;40902;45.116;21.296;2023-04-16T14:12:26;487.10;2022.40
55008;DHT22;40902;45.116;21.296;2023-04-16T14:14:52;487.10;1996.80
55008;DHT22;40902;45.116;21.296;2023-04-16T14:17:18;487.10;1996.80
55008;DHT22;40902;45.116;21.296;2023-04-16T14:19:43;487.00;1996.80
55008;DHT22;40902;45.116;21.296;2023-04-16T14:22:09;487.10;1971.20
55008;DHT22;40902;45.116;21.296;2023-04-16T14:24:35;487.10;1971.20
55008;DHT22;40902;45.116;21.296;2023-04-16T14:27:01;487.10;1996.80
55008;DHT22;40902;45.116;21.296;2023-04-16T14:29:27;487.10;1996.80
55008;DHT22;40902;45.116;21.296;2023-04-16T14:31:53;487.10;1971.20
55008;DHT22;40902;45.116;21.296;2023-04-16T14:34:18;487.30;2022.40
55008;DHT22;40902;45.116;21.296;2023-04-16T14:36:44;512.10;1996.80
55008;DHT22;40902;45.116;21.296;2023-04-16T14:39:13;512.00;1971.20
55008;DHT22;40902;45.116;21.296;2023-04-16T14:41:39;512.00;1971.20
55008;DHT22;40902;45.116;21.296;2023-04-16T14:56:17;512.80;1894.40
55008;DHT22;40902;45.116;21.296;2023-04-16T14:58:43;512.80;1868.80
55008;DHT22;40902;45.116;21.296;2023-04-16T15:55:04;512.50;2099.20
55008;DHT22;40902;45.116;21.296;2023-04-16T15:57:30;512.40;2099.20
55008;DHT22;40902;45.116;21.296;2023-04-16T15:59:56;512.40;2099.20
55008;DHT22;40902;45.116;21.296;2023-04-16T16:02:22;512.60;2099.20
55008;DHT22;40902;45.116;21.296;2023-04-16T16:04:48;512.60;2099.20
55008;DHT22;40902;45.116;21.296;2023-04-16T16:07:14;512.20;2150.40
55008;DHT22;40902;45.116;21.296;2023-04-16T16:09:42;512.10;2176.00
55008;DHT22;40902;45.116;21.296;2023-04-16T16:12:08;487.20;2227.20
55008;DHT22;40902;45.116;21.296;2023-04-16T16:14:34;512.00;2278.40
55008;DHT22;40902;45.116;21.296;2023-04-16T16:24:18;512.20;2278.40
55008;DHT22;40902;45.116;21.296;2023-04-16T16:26:43;487.30;2278.40
55008;DHT22;40902;45.116;21.296;2023-04-16T16:29:09;512.00;2278.40
55008;DHT22;40902;45.116;21.296;2023-04-16T16:31:35;487.30;2304.00
55008;DHT22;40902;45.116;21.296;2023-04-16T16:34:00;487.20;2304.00
55008;DHT22;40902;45.116;21.296;2023-04-16T16:36:26;487.10;2304.00
55008;DHT22;40902;45.116;21.296;2023-04-16T16:38:54;487.10;2329.60
55008;DHT22;40902;45.116;21.296;2023-04-16T16:41:20;487.00;2355.20
55008;DHT22;40902;45.116;21.296;2023-04-16T16:43:46;486.50;2355.20
55008;DHT22;40902;45.116;21.296;2023-04-16T16:46:12;461.70;2380.80
55008;DHT22;40902;45.116;21.296;2023-04-16T16:48:38;461.50;2380.80
55008;DHT22;40902;45.116;21.296;2023-04-16T16:51:08;461.30;2380.80
55008;DHT22;40902;45.116;21.296;2023-04-16T16:53:34;461.10;2380.80
55008;DHT22;40902;45.116;21.296;2023-04-16T16:56:00;461.00;2380.80
55008;DHT22;40902;45.116;21.296;2023-04-16T16:58:25;460.80;2380.80
55008;DHT22;40902;45.116;21.296;2023-04-16T17:00:52;436.00;2355.20
55008;DHT22;40902;45.116;21.296;2023-04-16T17:03:17;435.90;2355.20
55008;DHT22;40902;45.116;21.296;2023-04-16T17:05:43;435.70;2355.20
55008;DHT22;40902;45.116;21.296;2023-04-16T17:08:09;435.60;2355.20
55008;DHT22;40902;45.116;21.296;2023-04-16T17:10:35;435.40;2355.20
55008;DHT22;40902;45.116;21.296;2023-04-16T17:13:00;435.30;2355.20
55008;DHT22;40902;45.116;21.296;2023-04-16T17:15:26;435.30;2355.20
55008;DHT22;40902;45.116;21.296;2023-04-16T17:17:52;410.50;2355.20
55008;DHT22;40902;45.116;21.296;2023-04-16T17:20:18;410.50;2355.20
55008;DHT22;40902;45.116;21.296;2023-04-16T17:22:44;410.50;2355.20
55008;DHT22;40902;45.116;21.296;2023-04-16T17:25:10;435.30;2355.20
55008;DHT22;40902;45.116;21.296;2023-04-16T17:27:35;410.30;2355.20
55008;DHT22;40902;45.116;21.296;2023-04-16T17:30:02;410.30;2355.20
55008;DHT22;40902;45.116;21.296;2023-04-16T17:32:30;410.10;2355.20
55008;DHT22;40902;45.116;21.296;2023-04-16T17:34:59;410.10;2355.20
55008;DHT22;40902;45.116;21.296;2023-04-16T17:37:26;410.30;2355.20
55008;DHT22;40902;45.116;21.296;2023-04-16T17:39:52;410.10;2355.20
55008;DHT22;40902;45.116;21.296;2023-04-16T17:42:17;409.90;2355.20
55008;DHT22;40902;45.116;21.296;2023-04-16T17:44:43;409.90;2355.20
55008;DHT22;40902;45.116;21.296;2023-04-16T17:47:09;410.00;2355.20
55008;DHT22;40902;45.116;21.296;2023-04-16T17:49:35;409.70;2355.20
55008;DHT22;40902;45.116;21.296;2023-04-16T17:52:01;409.60;2355.20
55008;DHT22;40902;45.116;21.296;2023-04-16T17:54:26;409.60;2355.20
55008;DHT22;40902;45.116;21.296;2023-04-16T17:56:52;409.60;2355.20
55008;DHT22;40902;45.116;21.296;2023-04-16T17:59:18;409.60;2355.20
55008;DHT22;40902;45.116;21.296;2023-04-16T18:01:43;409.70;2355.20
55008;DHT22;40902;45.116;21.296;2023-04-16T18:04:09;384.90;2329.60
55008;DHT22;40902;45.116;21.296;2023-04-16T18:06:35;409.60;2355.20
55008;DHT22;40902;45.116;21.296;2023-04-16T18:09:01;409.60;2355.20
55008;DHT22;40902;45.116;21.296;2023-04-16T18:11:29;409.60;2355.20
55008;DHT22;40902;45.116;21.296;2023-04-16T18:13:55;384.90;2329.60
55008;DHT22;40902;45.116;21.296;2023-04-16T18:16:20;409.60;2355.20
55008;DHT22;40902;45.116;21.296;2023-04-16T18:18:47;409.60;2355.20